sensor_id;sensor_type;location;lat;lon;timestamp;pressure;altitude;pressure_sealevel;temperature;humidity
35577;BME280;21680;52.400;16.920;2022-12-15T00:01:20;99557.15;;;-6.48;80.87
35577;BME280;21680;52.400;16.920;2022-12-15T00:04:04;99555.92;;;-6.49;80.95
35577;BME280;21680;52.400;16.920;2022-12-15T00:06:48;99555.04;;;-6.51;80.93
35577;BME280;21680;52.400;16.920;2022-12-15T00:09:32;99555.36;;;-6.55;81.02
35577;BME280;21680;52.400;16.920;2022-12-15T00:12:17;99557.95;;;-6.57;80.89
35577;BME280;21680;52.400;16.920;2022-12-15T00:15:01;99562.27;;;-6.60;80.85
35577;BME280;21680;52.400;16.920;2022-12-15T00:17:45;99562.93;;;-6.63;80.95
35577;BME280;21680;52.400;16.920;2022-12-15T00:20:29;99565.00;;;-6.66;80.89
35577;BME280;21680;52.400;16.920;2022-12-15T00:23:13;99558.91;;;-6.66;81.02
35577;BME280;21680;52.400;16.920;2022-12-15T00:25:58;99556.83;;;-6.67;81.02
35577;BME280;21680;52.400;16.920;2022-12-15T00:28:42;99557.69;;;-6.68;80.90
35577;BME280;21680;52.400;16.920;2022-12-15T00:31:26;99566.53;;;-6.70;80.95
35577;BME280;21680;52.400;16.920;2022-12-15T00:34:10;99564.92;;;-6.75;80.87
35577;BME280;21680;52.400;16.920;2022-12-15T00:36:54;99568.54;;;-6.79;80.96
35577;BME280;21680;52.400;16.920;2022-12-15T00:39:38;99565.20;;;-6.83;80.82
35577;BME280;21680;52.400;16.920;2022-12-15T00:42:05;99565.17;;;-6.86;80.71
35577;BME280;21680;52.400;16.920;2022-12-15T00:44:31;99570.18;;;-6.89;80.81
35577;BME280;21680;52.400;16.920;2022-12-15T00:46:56;99575.21;;;-6.90;80.96
35577;BME280;21680;52.400;16.920;2022-12-15T00:49:27;99572.08;;;-6.91;80.84
35577;BME280;21680;52.400;16.920;2022-12-15T00:52:12;99575.69;;;-6.94;80.83
35577;BME280;21680;52.400;16.920;2022-12-15T00:54:57;99576.52;;;-6.98;80.90
35577;BME280;21680;52.400;16.920;2022-12-15T00:57:41;99580.34;;;-6.98;80.93
35577;BME280;21680;52.400;16.920;2022-12-15T01:00:26;99588.48;;;-7.00;80.90
35577;BME280;21680;52.400;16.920;2022-12-15T01:03:15;99594.23;;;-6.99;81.02
35577;BME280;21680;52.400;16.920;2022-12-15T01:06:06;99591.60;;;-7.01;80.85
35577;BME280;21680;52.400;16.920;2022-12-15T01:08:50;99585.02;;;-6.99;80.95
35577;BME280;21680;52.400;16.920;2022-12-15T01:11:34;99587.64;;;-6.98;80.94
35577;BME280;21680;52.400;16.920;2022-12-15T01:14:18;99586.77;;;-6.98;81.05
35577;BME280;21680;52.400;16.920;2022-12-15T01:17:03;99580.16;;;-6.99;80.91
35577;BME280;21680;52.400;16.920;2022-12-15T01:19:47;99577.20;;;-6.99;80.95
35577;BME280;21680;52.400;16.920;2022-12-15T01:22:31;99574.06;;;-7.02;80.91
35577;BME280;21680;52.400;16.920;2022-12-15T01:24:56;99576.83;;;-7.03;80.91
35577;BME280;21680;52.400;16.920;2022-12-15T01:27:21;99578.55;;;-7.03;80.91
35577;BME280;21680;52.400;16.920;2022-12-15T01:29:47;99579.80;;;-7.00;81.12
35577;BME280;21680;52.400;16.920;2022-12-15T01:32:12;99582.27;;;-6.97;81.16
35577;BME280;21680;52.400;16.920;2022-12-15T01:34:37;99585.91;;;-6.96;81.04
35577;BME280;21680;52.400;16.920;2022-12-15T01:37:03;99587.14;;;-6.95;81.20
35577;BME280;21680;52.400;16.920;2022-12-15T01:39:28;99589.40;;;-6.95;81.16
35577;BME280;21680;52.400;16.920;2022-12-15T01:42:14;99589.57;;;-6.96;81.08
35577;BME280;21680;52.400;16.920;2022-12-15T01:44:39;99594.23;;;-6.98;81.02
35577;BME280;21680;52.400;16.920;2022-12-15T01:47:08;99597.84;;;-7.02;80.93
35577;BME280;21680;52.400;16.920;2022-12-15T01:49:34;99595.88;;;-7.07;80.95
35577;BME280;21680;52.400;16.920;2022-12-15T01:52:01;99599.86;;;-7.09;80.97
35577;BME280;21680;52.400;16.920;2022-12-15T01:54:34;99601.91;;;-7.11;81.03
35577;BME280;21680;52.400;16.920;2022-12-15T01:57:06;99599.11;;;-7.13;81.02
35577;BME280;21680;52.400;16.920;2022-12-15T01:59:41;99599.79;;;-7.15;80.92
35577;BME280;21680;52.400;16.920;2022-12-15T02:02:12;99608.79;;;-7.17;81.09
35577;BME280;21680;52.400;16.920;2022-12-15T02:04:39;99614.84;;;-7.18;81.05
35577;BME280;21680;52.400;16.920;2022-12-15T02:07:06;99616.73;;;-7.21;80.99
35577;BME280;21680;52.400;16.920;2022-12-15T02:09:31;99620.33;;;-7.25;81.00
35577;BME280;21680;52.400;16.920;2022-12-15T02:12:05;99620.64;;;-7.28;81.04
35577;BME280;21680;52.400;16.920;2022-12-15T02:15:32;99620.60;;;-7.31;80.87
35577;BME280;21680;52.400;16.920;2022-12-15T02:20:39;99616.55;;;-7.37;80.97
35577;BME280;21680;52.400;16.920;2022-12-15T02:25:58;99623.30;;;-7.39;80.86
35577;BME280;21680;52.400;16.920;2022-12-15T02:28:58;99628.26;;;-7.43;81.03
35577;BME280;21680;52.400;16.920;2022-12-15T02:31:34;99634.45;;;-7.48;81.01
35577;BME280;21680;52.400;16.920;2022-12-15T02:34:32;99638.23;;;-7.51;80.96
35577;BME280;21680;52.400;16.920;2022-12-15T02:37:06;99645.34;;;-7.52;80.98
35577;BME280;21680;52.400;16.920;2022-12-15T02:39:32;99645.14;;;-7.54;81.01
35577;BME280;21680;52.400;16.920;2022-12-15T02:41:57;99648.09;;;-7.53;81.10
35577;BME280;21680;52.400;16.920;2022-12-15T02:44:36;99649.47;;;-7.55;81.09
35577;BME280;21680;52.400;16.920;2022-12-15T02:58:26;99648.81;;;-7.64;81.11
35577;BME280;21680;52.400;16.920;2022-12-15T03:03:38;99650.14;;;-7.69;81.10
35577;BME280;21680;52.400;16.920;2022-12-15T03:06:06;99654.27;;;-7.71;80.99
35577;BME280;21680;52.400;16.920;2022-12-15T03:08:31;99656.27;;;-7.77;80.92
35577;BME280;21680;52.400;16.920;2022-12-15T03:10:56;99662.30;;;-7.82;81.00
35577;BME280;21680;52.400;16.920;2022-12-15T03:13:23;99666.77;;;-7.84;81.18
35577;BME280;21680;52.400;16.920;2022-12-15T03:15:49;99663.33;;;-7.83;81.05
35577;BME280;21680;52.400;16.920;2022-12-15T03:18:16;99665.61;;;-7.81;81.15
35577;BME280;21680;52.400;16.920;2022-12-15T03:20:42;99669.60;;;-7.81;81.11
35577;BME280;21680;52.400;16.920;2022-12-15T03:23:07;99672.37;;;-7.79;81.25
35577;BME280;21680;52.400;16.920;2022-12-15T03:25:32;99672.55;;;-7.79;81.20
35577;BME280;21680;52.400;16.920;2022-12-15T03:27:57;99670.46;;;-7.80;81.26
35577;BME280;21680;52.400;16.920;2022-12-15T03:30:23;99669.08;;;-7.80;80.99
35577;BME280;21680;52.400;16.920;2022-12-15T03:32:48;99666.48;;;-7.78;81.08
35577;BME280;21680;52.400;16.920;2022-12-15T03:35:14;99667.35;;;-7.79;81.13
35577;BME280;21680;52.400;16.920;2022-12-15T03:37:40;99668.39;;;-7.80;81.32
35577;BME280;21680;52.400;16.920;2022-12-15T03:40:07;99666.27;;;-7.83;81.22
35577;BME280;21680;52.400;16.920;2022-12-15T03:42:33;99670.59;;;-7.84;81.01
35577;BME280;21680;52.400;16.920;2022-12-15T03:45:27;99681.48;;;-7.86;81.25
35577;BME280;21680;52.400;16.920;2022-12-15T03:47:54;99688.93;;;-7.87;81.36
35577;BME280;21680;52.400;16.920;2022-12-15T03:50:22;99692.39;;;-7.88;81.28
35577;BME280;21680;52.400;16.920;2022-12-15T03:52:52;99696.35;;;-7.90;81.28
35577;BME280;21680;52.400;16.920;2022-12-15T03:55:18;99705.20;;;-7.89;81.46
35577;BME280;21680;52.400;16.920;2022-12-15T03:57:44;99706.58;;;-7.89;81.29
35577;BME280;21680;52.400;16.920;2022-12-15T04:00:12;99710.23;;;-7.88;81.42
35577;BME280;21680;52.400;16.920;2022-12-15T04:02:40;99709.56;;;-7.88;81.25
35577;BME280;21680;52.400;16.920;2022-12-15T04:05:06;99709.73;;;-7.88;81.22
35577;BME280;21680;52.400;16.920;2022-12-15T04:07:31;99712.29;;;-7.90;81.32
35577;BME280;21680;52.400;16.920;2022-12-15T04:09:57;99716.95;;;-7.91;81.20
35577;BME280;21680;52.400;16.920;2022-12-15T04:12:22;99723.30;;;-7.95;81.23
35577;BME280;21680;52.400;16.920;2022-12-15T04:14:47;99726.88;;;-7.99;81.08
35577;BME280;21680;52.400;16.920;2022-12-15T04:17:13;99729.09;;;-8.02;81.20
35577;BME280;21680;52.400;16.920;2022-12-15T04:19:38;99723.48;;;-8.05;81.34
35577;BME280;21680;52.400;16.920;2022-12-15T04:22:23;99726.09;;;-8.05;81.21
35577;BME280;21680;52.400;16.920;2022-12-15T04:24:48;99729.85;;;-8.08;81.07
35577;BME280;21680;52.400;16.920;2022-12-15T04:27:32;99732.42;;;-8.10;81.51
35577;BME280;21680;52.400;16.920;2022-12-15T04:30:17;99737.94;;;-8.12;81.13
35577;BME280;21680;52.400;16.920;2022-12-15T04:33:02;99739.66;;;-8.12;81.41
35577;BME280;21680;52.400;16.920;2022-12-15T04:35:47;99746.61;;;-8.12;81.20
35577;BME280;21680;52.400;16.920;2022-12-15T04:38:32;99751.99;;;-8.11;81.43
35577;BME280;21680;52.400;16.920;2022-12-15T04:41:17;99754.61;;;-8.10;81.49
35577;BME280;21680;52.400;16.920;2022-12-15T04:44:02;99760.52;;;-8.08;81.56
35577;BME280;21680;52.400;16.920;2022-12-15T04:46:46;99762.23;;;-8.09;81.61
35577;BME280;21680;52.400;16.920;2022-12-15T04:49:30;99764.63;;;-8.12;81.40
35577;BME280;21680;52.400;16.920;2022-12-15T04:52:14;99765.64;;;-8.13;81.41
35577;BME280;21680;52.400;16.920;2022-12-15T04:54:59;99774.50;;;-8.12;81.45
35577;BME280;21680;52.400;16.920;2022-12-15T04:57:43;99782.48;;;-8.12;81.28
35577;BME280;21680;52.400;16.920;2022-12-15T05:00:27;99787.30;;;-8.13;81.43
35577;BME280;21680;52.400;16.920;2022-12-15T05:03:11;99792.36;;;-8.12;81.57
35577;BME280;21680;52.400;16.920;2022-12-15T05:05:56;99796.52;;;-8.11;81.52
35577;BME280;21680;52.400;16.920;2022-12-15T05:08:41;99797.23;;;-8.11;81.60
35577;BME280;21680;52.400;16.920;2022-12-15T05:11:25;99802.27;;;-8.10;81.57
35577;BME280;21680;52.400;16.920;2022-12-15T05:14:09;99801.05;;;-8.10;81.55
35577;BME280;21680;52.400;16.920;2022-12-15T05:16:53;99800.20;;;-8.10;81.39
35577;BME280;21680;52.400;16.920;2022-12-15T05:19:37;99802.09;;;-8.10;81.53
35577;BME280;21680;52.400;16.920;2022-12-15T05:22:21;99808.67;;;-8.10;81.42
35577;BME280;21680;52.400;16.920;2022-12-15T05:25:06;99811.23;;;-8.13;81.34
35577;BME280;21680;52.400;16.920;2022-12-15T05:27:49;99814.31;;;-8.14;81.36
35577;BME280;21680;52.400;16.920;2022-12-15T05:30:33;99820.55;;;-8.15;81.50
35577;BME280;21680;52.400;16.920;2022-12-15T05:33:17;99824.31;;;-8.17;81.60
35577;BME280;21680;52.400;16.920;2022-12-15T05:35:42;99826.02;;;-8.20;81.52
35577;BME280;21680;52.400;16.920;2022-12-15T05:38:08;99836.39;;;-8.21;81.62
35577;BME280;21680;52.400;16.920;2022-12-15T05:40:33;99848.69;;;-8.21;81.62
35577;BME280;21680;52.400;16.920;2022-12-15T05:42:59;99857.71;;;-8.21;81.38
35577;BME280;21680;52.400;16.920;2022-12-15T05:45:25;99861.69;;;-8.21;81.67
35577;BME280;21680;52.400;16.920;2022-12-15T05:47:51;99868.09;;;-8.21;81.75
35577;BME280;21680;52.400;16.920;2022-12-15T05:50:17;99868.63;;;-8.21;81.68
35577;BME280;21680;52.400;16.920;2022-12-15T05:52:42;99871.91;;;-8.21;81.70
35577;BME280;21680;52.400;16.920;2022-12-15T05:55:08;99871.22;;;-8.21;81.74
35577;BME280;21680;52.400;16.920;2022-12-15T05:57:33;99877.11;;;-8.21;81.75
35577;BME280;21680;52.400;16.920;2022-12-15T05:59:59;99879.35;;;-8.22;81.77
35577;BME280;21680;52.400;16.920;2022-12-15T06:02:24;99885.77;;;-8.22;81.75
35577;BME280;21680;52.400;16.920;2022-12-15T06:04:49;99886.09;;;-8.23;81.70
35577;BME280;21680;52.400;16.920;2022-12-15T06:07:14;99886.80;;;-8.22;81.83
35577;BME280;21680;52.400;16.920;2022-12-15T06:09:40;99883.85;;;-8.22;81.66
35577;BME280;21680;52.400;16.920;2022-12-15T06:12:05;99881.08;;;-8.22;81.79
35577;BME280;21680;52.400;16.920;2022-12-15T06:14:30;99879.83;;;-8.24;81.89
35577;BME280;21680;52.400;16.920;2022-12-15T06:16:56;99889.63;;;-8.28;81.54
35577;BME280;21680;52.400;16.920;2022-12-15T06:19:21;99895.98;;;-8.31;81.60
35577;BME280;21680;52.400;16.920;2022-12-15T06:21:46;99899.59;;;-8.34;81.80
35577;BME280;21680;52.400;16.920;2022-12-15T06:24:12;99900.94;;;-8.36;81.58
35577;BME280;21680;52.400;16.920;2022-12-15T06:26:38;99904.90;;;-8.37;81.75
35577;BME280;21680;52.400;16.920;2022-12-15T06:29:07;99910.08;;;-8.38;81.78
35577;BME280;21680;52.400;16.920;2022-12-15T06:31:34;99911.98;;;-8.38;81.83
35577;BME280;21680;52.400;16.920;2022-12-15T06:34:02;99917.17;;;-8.38;81.88
35577;BME280;21680;52.400;16.920;2022-12-15T06:36:28;99916.48;;;-8.38;81.72
35577;BME280;21680;52.400;16.920;2022-12-15T06:38:57;99920.64;;;-8.38;81.93
35577;BME280;21680;52.400;16.920;2022-12-15T06:41:23;99922.70;;;-8.39;81.68
35577;BME280;21680;52.400;16.920;2022-12-15T06:43:53;99927.87;;;-8.40;81.88
35577;BME280;21680;52.400;16.920;2022-12-15T06:46:23;99936.16;;;-8.41;81.82
35577;BME280;21680;52.400;16.920;2022-12-15T06:48:49;99936.51;;;-8.42;81.88
35577;BME280;21680;52.400;16.920;2022-12-15T06:51:15;99938.56;;;-8.42;81.71
35577;BME280;21680;52.400;16.920;2022-12-15T06:53:41;99938.77;;;-8.41;82.04
35577;BME280;21680;52.400;16.920;2022-12-15T06:56:17;99937.05;;;-8.41;81.92
35577;BME280;21680;52.400;16.920;2022-12-15T06:58:46;99945.17;;;-8.41;81.98
35577;BME280;21680;52.400;16.920;2022-12-15T07:01:12;99949.34;;;-8.40;82.03
35577;BME280;21680;52.400;16.920;2022-12-15T07:03:37;99958.48;;;-8.43;81.89
35577;BME280;21680;52.400;16.920;2022-12-15T07:06:06;99963.56;;;-8.48;81.86
35577;BME280;21680;52.400;16.920;2022-12-15T07:08:32;99965.20;;;-8.53;81.64
35577;BME280;21680;52.400;16.920;2022-12-15T07:11:05;99969.61;;;-8.56;81.83
35577;BME280;21680;52.400;16.920;2022-12-15T07:13:31;99974.41;;;-8.59;81.79
35577;BME280;21680;52.400;16.920;2022-12-15T07:15:58;99972.59;;;-8.63;81.86
35577;BME280;21680;52.400;16.920;2022-12-15T07:18:24;99971.48;;;-8.66;81.77
35577;BME280;21680;52.400;16.920;2022-12-15T07:20:50;99976.95;;;-8.69;81.90
35577;BME280;21680;52.400;16.920;2022-12-15T07:23:15;99982.73;;;-8.66;81.90
35577;BME280;21680;52.400;16.920;2022-12-15T07:25:41;99981.39;;;-8.64;81.99
35577;BME280;21680;52.400;16.920;2022-12-15T07:28:06;99983.48;;;-8.63;82.13
35577;BME280;21680;52.400;16.920;2022-12-15T07:30:34;99989.02;;;-8.64;81.97
35577;BME280;21680;52.400;16.920;2022-12-15T07:32:59;99990.45;;;-8.69;81.83
35577;BME280;21680;52.400;16.920;2022-12-15T07:35:25;99989.34;;;-8.73;81.98
35577;BME280;21680;52.400;16.920;2022-12-15T07:37:50;99993.80;;;-8.74;81.78
35577;BME280;21680;52.400;16.920;2022-12-15T07:40:16;100006.41;;;-8.75;82.09
35577;BME280;21680;52.400;16.920;2022-12-15T07:42:41;100006.90;;;-8.76;82.07
35577;BME280;21680;52.400;16.920;2022-12-15T07:45:08;100010.91;;;-8.75;82.04
35577;BME280;21680;52.400;16.920;2022-12-15T07:47:33;100012.33;;;-8.74;82.03
35577;BME280;21680;52.400;16.920;2022-12-15T07:50:00;100013.08;;;-8.71;82.09
35577;BME280;21680;52.400;16.920;2022-12-15T07:52:25;100021.61;;;-8.69;82.11
35577;BME280;21680;52.400;16.920;2022-12-15T07:54:51;100018.85;;;-8.69;82.02
35577;BME280;21680;52.400;16.920;2022-12-15T07:57:16;100023.09;;;-8.65;82.12
35577;BME280;21680;52.400;16.920;2022-12-15T07:59:42;100021.80;;;-8.61;82.28
35577;BME280;21680;52.400;16.920;2022-12-15T08:02:12;100017.23;;;-8.57;82.43
35577;BME280;21680;52.400;16.920;2022-12-15T08:04:38;100018.74;;;-8.51;82.58
35577;BME280;21680;52.400;16.920;2022-12-15T08:07:04;100026.17;;;-8.45;82.49
35577;BME280;21680;52.400;16.920;2022-12-15T08:09:29;100034.11;;;-8.39;82.54
35577;BME280;21680;52.400;16.920;2022-12-15T08:12:00;100038.91;;;-8.32;82.64
35577;BME280;21680;52.400;16.920;2022-12-15T08:14:26;100043.20;;;-8.26;82.58
35577;BME280;21680;52.400;16.920;2022-12-15T08:16:53;100040.58;;;-8.19;82.59
35577;BME280;21680;52.400;16.920;2022-12-15T08:19:19;100038.05;;;-8.15;82.45
35577;BME280;21680;52.400;16.920;2022-12-15T08:21:45;100042.66;;;-8.11;82.84
35577;BME280;21680;52.400;16.920;2022-12-15T08:24:11;100040.48;;;-8.07;82.56
35577;BME280;21680;52.400;16.920;2022-12-15T08:26:39;100042.33;;;-8.03;82.72
35577;BME280;21680;52.400;16.920;2022-12-15T08:29:07;100045.19;;;-7.98;82.81
35577;BME280;21680;52.400;16.920;2022-12-15T08:31:33;100051.01;;;-7.93;82.65
35577;BME280;21680;52.400;16.920;2022-12-15T08:33:59;100053.18;;;-7.89;82.64
35577;BME280;21680;52.400;16.920;2022-12-15T08:36:26;100058.30;;;-7.84;82.69
35577;BME280;21680;52.400;16.920;2022-12-15T08:38:54;100060.11;;;-7.80;82.78
35577;BME280;21680;52.400;16.920;2022-12-15T08:41:21;100060.70;;;-7.76;82.87
35577;BME280;21680;52.400;16.920;2022-12-15T08:43:48;100072.21;;;-7.73;82.74
35577;BME280;21680;52.400;16.920;2022-12-15T08:46:15;100077.15;;;-7.68;82.85
35577;BME280;21680;52.400;16.920;2022-12-15T08:48:41;100080.37;;;-7.64;82.84
35577;BME280;21680;52.400;16.920;2022-12-15T08:51:06;100079.60;;;-7.59;82.82
35577;BME280;21680;52.400;16.920;2022-12-15T08:53:32;100084.92;;;-7.54;82.93
35577;BME280;21680;52.400;16.920;2022-12-15T08:56:06;100090.94;;;-7.47;83.00
35577;BME280;21680;52.400;16.920;2022-12-15T08:58:32;100096.45;;;-7.41;83.04
35577;BME280;21680;52.400;16.920;2022-12-15T09:01:08;100100.21;;;-7.35;83.13
35577;BME280;21680;52.400;16.920;2022-12-15T09:03:35;100098.95;;;-7.29;83.00
35577;BME280;21680;52.400;16.920;2022-12-15T09:06:02;100098.57;;;-7.21;83.11
35577;BME280;21680;52.400;16.920;2022-12-15T09:08:28;100102.20;;;-7.13;83.18
35577;BME280;21680;52.400;16.920;2022-12-15T09:10:56;100103.08;;;-7.04;83.27
35577;BME280;21680;52.400;16.920;2022-12-15T09:13:22;100106.17;;;-6.96;83.40
35577;BME280;21680;52.400;16.920;2022-12-15T09:16:01;100104.58;;;-6.88;83.37
35577;BME280;21680;52.400;16.920;2022-12-15T09:18:27;100100.71;;;-6.80;83.26
35577;BME280;21680;52.400;16.920;2022-12-15T09:20:53;100092.89;;;-6.70;83.44
35577;BME280;21680;52.400;16.920;2022-12-15T09:23:20;100096.48;;;-6.64;83.36
35577;BME280;21680;52.400;16.920;2022-12-15T09:25:46;100093.98;;;-6.57;83.46
35577;BME280;21680;52.400;16.920;2022-12-15T09:28:13;100094.96;;;-6.50;83.49
35577;BME280;21680;52.400;16.920;2022-12-15T09:30:38;100096.27;;;-6.45;83.48
35577;BME280;21680;52.400;16.920;2022-12-15T09:33:03;100094.44;;;-6.40;83.43
35577;BME280;21680;52.400;16.920;2022-12-15T09:35:29;100094.54;;;-6.34;83.78
35577;BME280;21680;52.400;16.920;2022-12-15T09:37:57;100096.91;;;-6.27;83.69
35577;BME280;21680;52.400;16.920;2022-12-15T09:40:23;100106.22;;;-6.20;83.70
35577;BME280;21680;52.400;16.920;2022-12-15T09:42:54;100110.65;;;-6.14;83.63
35577;BME280;21680;52.400;16.920;2022-12-15T09:45:21;100111.30;;;-6.06;83.85
35577;BME280;21680;52.400;16.920;2022-12-15T09:48:02;100116.27;;;-5.99;83.88
35577;BME280;21680;52.400;16.920;2022-12-15T09:50:34;100118.13;;;-5.90;83.75
35577;BME280;21680;52.400;16.920;2022-12-15T09:53:02;100118.08;;;-5.80;83.90
35577;BME280;21680;52.400;16.920;2022-12-15T09:55:31;100120.64;;;-5.71;83.90
35577;BME280;21680;52.400;16.920;2022-12-15T10:04:06;100106.64;;;-5.50;83.94
35577;BME280;21680;52.400;16.920;2022-12-15T10:06:44;100106.23;;;-5.41;83.82
35577;BME280;21680;52.400;16.920;2022-12-15T10:09:23;100107.70;;;-5.35;83.92
35577;BME280;21680;52.400;16.920;2022-12-15T10:12:02;100109.88;;;-5.27;84.18
35577;BME280;21680;52.400;16.920;2022-12-15T10:14:37;100113.11;;;-5.18;84.15
35577;BME280;21680;52.400;16.920;2022-12-15T10:17:18;100116.34;;;-5.08;84.19
35577;BME280;21680;52.400;16.920;2022-12-15T10:19:49;100123.77;;;-4.97;84.51
35577;BME280;21680;52.400;16.920;2022-12-15T10:22:31;100125.27;;;-4.87;84.36
35577;BME280;21680;52.400;16.920;2022-12-15T10:25:01;100123.13;;;-4.75;84.38
35577;BME280;21680;52.400;16.920;2022-12-15T10:30:24;100131.16;;;-4.55;84.54
35577;BME280;21680;52.400;16.920;2022-12-15T10:33:02;100133.30;;;-4.49;84.43
35577;BME280;21680;52.400;16.920;2022-12-15T10:35:33;100130.73;;;-4.44;84.30
35577;BME280;21680;52.400;16.920;2022-12-15T10:38:01;100134.79;;;-4.40;84.55
35577;BME280;21680;52.400;16.920;2022-12-15T10:40:47;100133.43;;;-4.36;84.43
35577;BME280;21680;52.400;16.920;2022-12-15T10:43:24;100130.32;;;-4.32;84.42
35577;BME280;21680;52.400;16.920;2022-12-15T10:48:33;100129.36;;;-4.21;84.44
35577;BME280;21680;52.400;16.920;2022-12-15T10:53:47;100124.77;;;-4.05;84.45
35577;BME280;21680;52.400;16.920;2022-12-15T10:56:21;100125.69;;;-4.00;84.97
35577;BME280;21680;52.400;16.920;2022-12-15T10:58:50;100129.38;;;-3.95;84.89
35577;BME280;21680;52.400;16.920;2022-12-15T11:01:19;100132.02;;;-3.89;84.79
35577;BME280;21680;52.400;16.920;2022-12-15T11:03:45;100134.52;;;-3.82;84.66
35577;BME280;21680;52.400;16.920;2022-12-15T11:06:23;100128.09;;;-3.78;84.56
35577;BME280;21680;52.400;16.920;2022-12-15T11:08:50;100123.06;;;-3.72;84.79
35577;BME280;21680;52.400;16.920;2022-12-15T11:11:33;100118.21;;;-3.65;85.03
35577;BME280;21680;52.400;16.920;2022-12-15T11:14:23;100120.70;;;-3.58;84.91
35577;BME280;21680;52.400;16.920;2022-12-15T11:16:56;100120.55;;;-3.53;84.71
35577;BME280;21680;52.400;16.920;2022-12-15T11:19:42;100123.02;;;-3.46;84.94
35577;BME280;21680;52.400;16.920;2022-12-15T11:22:15;100119.38;;;-3.41;84.71
35577;BME280;21680;52.400;16.920;2022-12-15T11:24:57;100118.01;;;-3.36;84.89
35577;BME280;21680;52.400;16.920;2022-12-15T11:27:26;100119.60;;;-3.32;84.64
35577;BME280;21680;52.400;16.920;2022-12-15T11:30:10;100129.05;;;-3.28;84.64
35577;BME280;21680;52.400;16.920;2022-12-15T11:32:40;100135.34;;;-3.29;84.38
35577;BME280;21680;52.400;16.920;2022-12-15T11:35:15;100146.00;;;-3.28;84.75
35577;BME280;21680;52.400;16.920;2022-12-15T11:37:48;100154.04;;;-3.26;84.84
35577;BME280;21680;52.400;16.920;2022-12-15T11:40:37;100156.14;;;-3.24;84.88
35577;BME280;21680;52.400;16.920;2022-12-15T11:43:22;100156.14;;;-3.23;84.79
35577;BME280;21680;52.400;16.920;2022-12-15T11:46:25;100158.75;;;-3.27;84.84
35577;BME280;21680;52.400;16.920;2022-12-15T11:49:19;100161.55;;;-3.28;84.96
35577;BME280;21680;52.400;16.920;2022-12-15T11:52:02;100164.33;;;-3.30;84.61
35577;BME280;21680;52.400;16.920;2022-12-15T11:54:46;100166.23;;;-3.32;84.73
35577;BME280;21680;52.400;16.920;2022-12-15T12:00:18;100168.31;;;-3.35;84.64
35577;BME280;21680;52.400;16.920;2022-12-15T12:05:49;100174.62;;;-3.33;84.55
35577;BME280;21680;52.400;16.920;2022-12-15T12:11:15;100174.77;;;-3.40;84.51
35577;BME280;21680;52.400;16.920;2022-12-15T12:14:09;100181.05;;;-3.40;84.44
35577;BME280;21680;52.400;16.920;2022-12-15T12:19:17;100192.20;;;-3.43;84.30
35577;BME280;21680;52.400;16.920;2022-12-15T12:21:46;100192.35;;;-3.49;84.24
35577;BME280;21680;52.400;16.920;2022-12-15T12:24:39;100191.64;;;-3.51;84.10
35577;BME280;21680;52.400;16.920;2022-12-15T12:27:35;100189.19;;;-3.52;84.19
35577;BME280;21680;52.400;16.920;2022-12-15T12:30:16;100193.73;;;-3.50;84.29
35577;BME280;21680;52.400;16.920;2022-12-15T12:35:41;100190.10;;;-3.45;83.98
35577;BME280;21680;52.400;16.920;2022-12-15T12:38:10;100191.85;;;-3.44;84.14
35577;BME280;21680;52.400;16.920;2022-12-15T12:43:05;100192.75;;;-3.40;84.28
35577;BME280;21680;52.400;16.920;2022-12-15T12:45:50;100193.62;;;-3.40;83.90
35577;BME280;21680;52.400;16.920;2022-12-15T12:48:33;100198.14;;;-3.43;83.71
35577;BME280;21680;52.400;16.920;2022-12-15T12:51:22;100196.20;;;-3.45;83.46
35577;BME280;21680;52.400;16.920;2022-12-15T12:53:49;100194.99;;;-3.45;83.51
35577;BME280;21680;52.400;16.920;2022-12-15T12:56:29;100197.42;;;-3.46;83.60
35577;BME280;21680;52.400;16.920;2022-12-15T12:58:55;100191.49;;;-3.45;83.87
35577;BME280;21680;52.400;16.920;2022-12-15T13:01:29;100190.98;;;-3.44;83.74
35577;BME280;21680;52.400;16.920;2022-12-15T13:04:10;100200.24;;;-3.43;83.33
35577;BME280;21680;52.400;16.920;2022-12-15T13:14:21;100213.54;;;-3.67;83.39
35577;BME280;21680;52.400;16.920;2022-12-15T13:17:15;100213.00;;;-3.69;83.15
35577;BME280;21680;52.400;16.920;2022-12-15T13:22:30;100219.98;;;-3.70;83.77
35577;BME280;21680;52.400;16.920;2022-12-15T13:24:56;100225.90;;;-3.71;83.21
35577;BME280;21680;52.400;16.920;2022-12-15T13:27:22;100225.20;;;-3.71;83.43
35577;BME280;21680;52.400;16.920;2022-12-15T13:32:35;100222.42;;;-3.69;83.09
35577;BME280;21680;52.400;16.920;2022-12-15T13:37:56;100222.98;;;-3.65;83.41
35577;BME280;21680;52.400;16.920;2022-12-15T13:40:31;100223.68;;;-3.63;83.22
35577;BME280;21680;52.400;16.920;2022-12-15T13:43:36;100225.09;;;-3.62;83.32
35577;BME280;21680;52.400;16.920;2022-12-15T13:46:15;100226.30;;;-3.63;83.13
35577;BME280;21680;52.400;16.920;2022-12-15T13:48:45;100223.88;;;-3.61;83.14
35577;BME280;21680;52.400;16.920;2022-12-15T13:51:33;100222.30;;;-3.61;82.81
35577;BME280;21680;52.400;16.920;2022-12-15T13:54:16;100227.70;;;-3.63;83.17
35577;BME280;21680;52.400;16.920;2022-12-15T13:56:48;100229.27;;;-3.65;82.99
35577;BME280;21680;52.400;16.920;2022-12-15T14:05:15;100232.20;;;-3.68;83.11
35577;BME280;21680;52.400;16.920;2022-12-15T14:07:49;100234.98;;;-3.69;83.01
35577;BME280;21680;52.400;16.920;2022-12-15T14:15:45;100237.77;;;-3.72;83.00
35577;BME280;21680;52.400;16.920;2022-12-15T14:18:36;100238.45;;;-3.73;82.96
35577;BME280;21680;52.400;16.920;2022-12-15T14:21:23;100240.01;;;-3.75;82.66
35577;BME280;21680;52.400;16.920;2022-12-15T14:23:55;100232.65;;;-3.79;82.79
35577;BME280;21680;52.400;16.920;2022-12-15T14:26:26;100237.55;;;-3.78;82.79
35577;BME280;21680;52.400;16.920;2022-12-15T14:29:08;100235.98;;;-3.77;82.81
35577;BME280;21680;52.400;16.920;2022-12-15T14:31:38;100234.58;;;-3.78;82.61
35577;BME280;21680;52.400;16.920;2022-12-15T14:34:24;100237.36;;;-3.80;82.70